Time;durP1;ratioP1;P1;durP2;ratioP2;P2;SDS_P1;SDS_P2;PMS_P1;PMS_P2;Temp;Humidity;BMP_temperature;BMP_pressure;BME280_temperature;BME280_humidity;BME280_pressure;Samples;Min_cycle;Max_cycle;Signal;HPM_P1;HPM_P2
2021/11/28 00:00:24;;;;;;;2.47;1.60;;;;;;;;;;5101411;28;20231;-74
2021/11/28 00:02:52;;;;;;;5.67;1.73;;;;;;;;;;5101298;28;20209;-74
2021/11/28 00:05:24;;;;;;;1.63;1.30;;;;;;;;;;5101081;28;20205;-74
2021/11/28 00:11:00;;;;;;;2.93;1.60;;;;;;;;;;5136116;27;20577;-76
2021/11/28 00:16:19;;;;;;;2.23;1.63;;;;;;;;;;5120061;27;20204;-75
2021/11/28 00:18:47;;;;;;;1.83;1.67;;;;;;;;;;5110969;28;20281;-76
2021/11/28 00:21:15;;;;;;;3.47;1.90;;;;;;;;;;5113666;28;20216;-75
2021/11/28 00:23:43;;;;;;;1.67;1.43;;;;;;;;;;5114429;28;21919;-76
2021/11/28 00:26:13;;;;;;;2.43;1.80;;;;;;;;;;5115513;28;20204;-75
2021/11/28 00:28:41;;;;;;;5.37;2.17;;;;;;;;;;5108420;28;20782;-75
2021/11/28 00:31:09;;;;;;;2.33;1.80;;;;;;;;;;5114278;28;20207;-75
2021/11/28 00:33:37;;;;;;;4.17;2.90;;;;;;;;;;5114621;28;20204;-76
2021/11/28 00:36:06;;;;;;;4.73;3.30;;;;;;;;;;5115031;28;20201;-75
2021/11/28 00:38:35;;;;;;;3.33;2.47;;;;;;;;;;5105420;28;20228;-75
2021/11/28 00:41:03;;;;;;;3.30;2.17;;;;;;;;;;5115160;28;20277;-75
2021/11/28 00:43:32;;;;;;;2.80;2.50;;;;;;;;;;5114111;28;20563;-75
2021/11/28 00:46:00;;;;;;;3.07;2.53;;;;;;;;;;5114890;28;20200;-75
2021/11/28 00:48:30;;;;;;;4.67;3.10;;;;;;;;;;5114453;28;20217;-75
2021/11/28 00:51:22;;;;;;;3.47;2.00;;;;;;;;;;5100417;28;20765;-75
2021/11/28 00:53:51;;;;;;;1.70;1.57;;;;;;;;;;5114500;28;20443;-75
2021/11/28 00:56:19;;;;;;;2.03;1.60;;;;;;;;;;5101941;28;20207;-75
2021/11/28 00:58:49;;;;;;;2.60;2.27;;;;;;;;;;5113437;28;20231;-76
2021/11/28 01:01:17;;;;;;;2.47;2.27;;;;;;;;;;5114547;28;20207;-75
2021/11/28 01:03:46;;;;;;;1.60;1.50;;;;;;;;;;5114272;28;20216;-76
2021/11/28 01:06:14;;;;;;;2.60;1.57;;;;;;;;;;5114237;28;20211;-76
2021/11/28 01:08:42;;;;;;;2.70;2.00;;;;;;;;;;5112347;28;20325;-76
2021/11/28 01:11:10;;;;;;;3.00;1.97;;;;;;;;;;5108955;28;20217;-75
2021/11/28 01:13:38;;;;;;;2.50;2.30;;;;;;;;;;5112829;28;20707;-76
2021/11/28 01:16:07;;;;;;;2.27;1.30;;;;;;;;;;5104735;28;20793;-75
2021/11/28 01:18:36;;;;;;;3.00;1.80;;;;;;;;;;5113651;28;20278;-76
2021/11/28 01:21:04;;;;;;;1.30;1.20;;;;;;;;;;5106409;28;20208;-75
2021/11/28 01:23:33;;;;;;;1.33;1.20;;;;;;;;;;5100402;28;20206;-76
2021/11/28 01:26:01;;;;;;;1.50;1.40;;;;;;;;;;5086757;28;20657;-75
2021/11/28 01:28:30;;;;;;;1.40;1.30;;;;;;;;;;5099331;28;20217;-75
2021/11/28 01:30:58;;;;;;;2.23;1.60;;;;;;;;;;5100497;28;20320;-76
2021/11/28 01:33:27;;;;;;;1.20;1.13;;;;;;;;;;5100259;28;20217;-76
2021/11/28 01:35:55;;;;;;;1.40;1.30;;;;;;;;;;5100272;28;20532;-75
2021/11/28 01:38:23;;;;;;;1.07;1.03;;;;;;;;;;5089146;28;20482;-76
2021/11/28 01:40:52;;;;;;;1.00;1.00;;;;;;;;;;5100024;28;20205;-76
2021/11/28 01:43:20;;;;;;;1.40;1.30;;;;;;;;;;5100236;28;20439;-76
2021/11/28 01:45:49;;;;;;;1.00;1.00;;;;;;;;;;5086075;28;20455;-76
2021/11/28 01:48:18;;;;;;;1.43;1.33;;;;;;;;;;5099783;28;20570;-76
2021/11/28 01:50:48;;;;;;;2.07;1.83;;;;;;;;;;5098823;28;20505;-76
2021/11/28 01:53:18;;;;;;;3.00;1.40;;;;;;;;;;5100134;28;20535;-76
2021/11/28 01:55:46;;;;;;;1.37;1.20;;;;;;;;;;5099256;28;20206;-76
2021/11/28 01:58:15;;;;;;;2.07;1.90;;;;;;;;;;5098297;28;20482;-76
2021/11/28 02:00:44;;;;;;;1.43;1.33;;;;;;;;;;5099318;28;20460;-76
2021/11/28 02:03:13;;;;;;;2.03;1.93;;;;;;;;;;5099732;28;20444;-75
2021/11/28 02:05:42;;;;;;;2.07;1.77;;;;;;;;;;5099988;28;20448;-75
2021/11/28 02:08:11;;;;;;;1.53;1.43;;;;;;;;;;5099826;28;20534;-75
2021/11/28 02:10:39;;;;;;;1.73;1.63;;;;;;;;;;5099387;28;20491;-75
2021/11/28 02:13:07;;;;;;;1.60;1.50;;;;;;;;;;5099495;28;21002;-75
2021/11/28 02:15:35;;;;;;;1.63;1.53;;;;;;;;;;5085810;28;20471;-75
2021/11/28 02:18:03;;;;;;;1.87;1.77;;;;;;;;;;5099223;28;20470;-75
2021/11/28 02:20:32;;;;;;;1.93;1.50;;;;;;;;;;5099493;28;20436;-75
2021/11/28 02:23:02;;;;;;;1.63;1.53;;;;;;;;;;5091263;28;20544;-75
2021/11/28 02:25:30;;;;;;;1.60;1.50;;;;;;;;;;5093909;28;20461;-75
2021/11/28 02:27:58;;;;;;;1.73;1.63;;;;;;;;;;5098263;28;20448;-76
2021/11/28 02:30:26;;;;;;;2.00;1.63;;;;;;;;;;5099287;28;20479;-76
2021/11/28 02:32:56;;;;;;;1.50;1.40;;;;;;;;;;5098416;28;20440;-76
2021/11/28 02:35:25;;;;;;;1.80;1.70;;;;;;;;;;5099250;28;21007;-75
2021/11/28 02:37:53;;;;;;;2.07;1.80;;;;;;;;;;5088431;28;20795;-75
2021/11/28 02:40:23;;;;;;;2.30;2.10;;;;;;;;;;5099167;28;20450;-75
2021/11/28 02:42:52;;;;;;;2.30;1.70;;;;;;;;;;5097185;28;20462;-76
2021/11/28 02:45:22;;;;;;;2.00;1.90;;;;;;;;;;5098102;28;20946;-75
2021/11/28 02:47:50;;;;;;;2.30;2.10;;;;;;;;;;5098537;28;20952;-75
2021/11/28 02:50:19;;;;;;;1.80;1.70;;;;;;;;;;5098504;28;20502;-75
2021/11/28 02:52:53;;;;;;;2.30;2.10;;;;;;;;;;5099026;28;20478;-75
2021/11/28 02:55:24;;;;;;;1.90;1.80;;;;;;;;;;5090754;28;20466;-75
2021/11/28 02:57:52;;;;;;;4.17;2.20;;;;;;;;;;5097727;28;20456;-76
2021/11/28 03:00:21;;;;;;;2.30;2.13;;;;;;;;;;5098940;28;20534;-75
2021/11/28 03:02:49;;;;;;;2.83;2.23;;;;;;;;;;5098835;28;20444;-75
2021/11/28 03:05:17;;;;;;;2.60;2.17;;;;;;;;;;5098373;28;20448;-75
2021/11/28 03:07:45;;;;;;;2.47;2.27;;;;;;;;;;5096749;28;20550;-76
2021/11/28 03:13:16;;;;;;;2.50;2.23;;;;;;;;;;5094355;27;20563;-75
2021/11/28 03:15:44;;;;;;;2.00;1.90;;;;;;;;;;5094910;28;20534;-75
2021/11/28 03:18:12;;;;;;;2.50;2.30;;;;;;;;;;5094897;28;20464;-75
2021/11/28 03:20:41;;;;;;;2.30;2.20;;;;;;;;;;5095018;28;20501;-75
2021/11/28 03:23:09;;;;;;;2.00;1.90;;;;;;;;;;5082706;28;20475;-74
2021/11/28 03:25:37;;;;;;;2.67;2.40;;;;;;;;;;5069081;28;20467;-75
2021/11/28 03:28:05;;;;;;;2.50;2.30;;;;;;;;;;5073765;28;20482;-75
2021/11/28 03:30:35;;;;;;;2.50;2.30;;;;;;;;;;5074608;28;20527;-75
2021/11/28 03:33:03;;;;;;;2.83;2.53;;;;;;;;;;5074394;28;20558;-75
2021/11/28 03:35:31;;;;;;;3.40;3.10;;;;;;;;;;5073082;28;20455;-75
2021/11/28 03:37:59;;;;;;;2.13;2.00;;;;;;;;;;5068289;28;20508;-75
2021/11/28 03:40:27;;;;;;;2.50;2.30;;;;;;;;;;5074506;28;20437;-75
2021/11/28 03:42:55;;;;;;;2.27;2.10;;;;;;;;;;5070097;28;20460;-76
2021/11/28 03:45:24;;;;;;;2.40;2.20;;;;;;;;;;5074352;28;20441;-75
2021/11/28 03:47:53;;;;;;;2.30;2.10;;;;;;;;;;5074166;28;20455;-75
2021/11/28 03:50:21;;;;;;;2.20;2.10;;;;;;;;;;5070670;28;20453;-75
2021/11/28 03:52:49;;;;;;;1.97;1.87;;;;;;;;;;5074016;28;20245;-76
2021/11/28 03:55:18;;;;;;;2.70;2.23;;;;;;;;;;5060529;28;20461;-75
2021/11/28 03:57:46;;;;;;;2.73;2.30;;;;;;;;;;5070809;28;20461;-75
2021/11/28 04:00:14;;;;;;;2.40;2.20;;;;;;;;;;5070152;28;20208;-75
2021/11/28 04:02:42;;;;;;;2.03;1.93;;;;;;;;;;5074169;28;20206;-75
2021/11/28 04:05:12;;;;;;;2.37;2.20;;;;;;;;;;5073681;28;20214;-75
2021/11/28 04:07:40;;;;;;;1.93;1.80;;;;;;;;;;5073645;28;20793;-75
2021/11/28 04:10:09;;;;;;;1.90;1.80;;;;;;;;;;5064685;28;20213;-75
2021/11/28 04:12:37;;;;;;;2.20;2.00;;;;;;;;;;5073630;28;20240;-75
2021/11/28 04:15:05;;;;;;;2.17;2.07;;;;;;;;;;5073638;28;20640;-75
2021/11/28 04:17:33;;;;;;;2.40;2.20;;;;;;;;;;5073837;28;20206;-76
2021/11/28 04:20:01;;;;;;;3.43;2.10;;;;;;;;;;5073007;28;20230;-75
2021/11/28 04:22:31;;;;;;;2.90;2.70;;;;;;;;;;5068985;28;20988;-75
2021/11/28 04:24:59;;;;;;;2.23;2.03;;;;;;;;;;5056961;28;20209;-75
2021/11/28 04:27:27;;;;;;;1.70;1.60;;;;;;;;;;5059152;28;20838;-75
2021/11/28 04:29:55;;;;;;;2.37;2.17;;;;;;;;;;5056285;28;20231;-75
2021/11/28 04:32:23;;;;;;;2.17;2.07;;;;;;;;;;5059183;28;20225;-75
2021/11/28 04:34:51;;;;;;;3.73;2.27;;;;;;;;;;5058712;28;20434;-75
2021/11/28 04:37:19;;;;;;;2.50;2.30;;;;;;;;;;5053925;28;20206;-75
2021/11/28 04:39:48;;;;;;;2.53;2.33;;;;;;;;;;5058310;28;20226;-75
2021/11/28 04:42:16;;;;;;;3.33;3.03;;;;;;;;;;5054404;28;20457;-75
2021/11/28 04:44:44;;;;;;;2.50;2.30;;;;;;;;;;5058565;28;20645;-75
2021/11/28 04:47:14;;;;;;;2.50;2.30;;;;;;;;;;5058977;28;20433;-75
2021/11/28 04:49:42;;;;;;;2.53;2.33;;;;;;;;;;5054801;28;20219;-75
2021/11/28 04:52:10;;;;;;;2.97;2.77;;;;;;;;;;5060336;28;20479;-75
2021/11/28 04:54:38;;;;;;;2.80;2.60;;;;;;;;;;5057670;28;20661;-75
2021/11/28 04:57:08;;;;;;;2.67;2.50;;;;;;;;;;5057852;28;20442;-75
2021/11/28 04:59:36;;;;;;;2.53;2.33;;;;;;;;;;5058704;28;20230;-75
2021/11/28 05:02:04;;;;;;;2.30;2.10;;;;;;;;;;5054291;28;20205;-75
2021/11/28 05:04:33;;;;;;;2.73;2.50;;;;;;;;;;5060347;28;20524;-75
2021/11/28 05:07:01;;;;;;;2.60;2.40;;;;;;;;;;5058233;28;20651;-75
2021/11/28 05:09:29;;;;;;;2.73;2.53;;;;;;;;;;5057662;28;20477;-75
2021/11/28 05:11:56;;;;;;;2.63;2.43;;;;;;;;;;5055429;28;20489;-75
2021/11/28 05:14:29;;;;;;;2.60;2.40;;;;;;;;;;5059597;28;20505;-75
2021/11/28 05:16:58;;;;;;;1.97;1.87;;;;;;;;;;5058801;28;20445;-75
2021/11/28 05:19:26;;;;;;;2.43;2.23;;;;;;;;;;5058460;28;20481;-75
2021/11/28 05:21:54;;;;;;;2.40;2.20;;;;;;;;;;5057806;28;20520;-76
2021/11/28 05:24:22;;;;;;;2.43;2.27;;;;;;;;;;5058341;28;20462;-75
2021/11/28 05:26:50;;;;;;;2.00;1.90;;;;;;;;;;5055288;28;20465;-75
2021/11/28 05:29:19;;;;;;;2.27;2.13;;;;;;;;;;5058984;28;20453;-75
2021/11/28 05:31:48;;;;;;;1.80;1.70;;;;;;;;;;5057942;28;20459;-75
2021/11/28 05:34:16;;;;;;;2.37;2.20;;;;;;;;;;5058265;28;20492;-75
2021/11/28 05:36:44;;;;;;;2.47;2.27;;;;;;;;;;5058921;28;20430;-75
2021/11/28 05:39:12;;;;;;;2.80;1.97;;;;;;;;;;5057395;28;20477;-75
2021/11/28 05:41:40;;;;;;;1.77;1.67;;;;;;;;;;5058160;28;20433;-75
2021/11/28 05:44:10;;;;;;;2.10;2.00;;;;;;;;;;5056503;28;20581;-75
2021/11/28 05:46:38;;;;;;;2.00;1.90;;;;;;;;;;5057485;28;20807;-75
2021/11/28 05:49:07;;;;;;;2.27;2.07;;;;;;;;;;5059840;28;20462;-75
2021/11/28 05:51:35;;;;;;;2.17;1.97;;;;;;;;;;5055547;28;20456;-75
2021/11/28 05:54:03;;;;;;;1.70;1.60;;;;;;;;;;5059096;28;20485;-75
2021/11/28 05:56:31;;;;;;;2.50;1.80;;;;;;;;;;5054970;28;20457;-75
2021/11/28 05:58:59;;;;;;;2.10;2.00;;;;;;;;;;5054462;28;20461;-75
2021/11/28 06:01:27;;;;;;;2.97;2.00;;;;;;;;;;5060041;28;20444;-75
2021/11/28 06:03:55;;;;;;;1.83;1.73;;;;;;;;;;5057042;28;20539;-75
2021/11/28 06:06:25;;;;;;;2.47;2.27;;;;;;;;;;5054734;28;20462;-75
2021/11/28 06:08:53;;;;;;;1.87;1.77;;;;;;;;;;5058484;28;20457;-75
2021/11/28 06:11:21;;;;;;;2.33;2.10;;;;;;;;;;5058519;28;20469;-75
2021/11/28 06:13:52;;;;;;;2.47;2.23;;;;;;;;;;5053706;28;20531;-75
2021/11/28 06:16:22;;;;;;;2.70;2.50;;;;;;;;;;5053134;28;20463;-75
2021/11/28 06:18:50;;;;;;;2.00;1.80;;;;;;;;;;5054942;28;20523;-75
2021/11/28 06:21:18;;;;;;;2.47;2.03;;;;;;;;;;5056592;28;20503;-75
2021/11/28 06:23:47;;;;;;;2.67;2.43;;;;;;;;;;5058405;28;20448;-75
2021/11/28 06:26:16;;;;;;;2.60;2.40;;;;;;;;;;5059415;28;20441;-75
2021/11/28 06:28:45;;;;;;;2.33;2.07;;;;;;;;;;5056292;28;20488;-75
2021/11/28 06:31:13;;;;;;;2.00;1.90;;;;;;;;;;5057729;28;20443;-75
2021/11/28 06:33:41;;;;;;;3.13;2.70;;;;;;;;;;5056967;28;20844;-75
2021/11/28 06:36:09;;;;;;;2.33;2.13;;;;;;;;;;5057776;28;20445;-75
2021/11/28 06:38:37;;;;;;;5.00;3.13;;;;;;;;;;5051066;28;20484;-75
2021/11/28 06:41:06;;;;;;;4.20;2.47;;;;;;;;;;5057737;28;20455;-75
2021/11/28 06:43:34;;;;;;;2.97;2.67;;;;;;;;;;5057898;28;20445;-75
2021/11/28 06:46:02;;;;;;;3.43;2.30;;;;;;;;;;5056620;28;20457;-75
2021/11/28 06:48:31;;;;;;;2.43;2.23;;;;;;;;;;5057373;28;20472;-75
2021/11/28 06:50:59;;;;;;;3.03;2.40;;;;;;;;;;5053005;28;20457;-75
2021/11/28 06:53:27;;;;;;;6.17;5.00;;;;;;;;;;5046522;28;20989;-75
2021/11/28 06:55:55;;;;;;;5.57;3.23;;;;;;;;;;5037861;28;20450;-75
2021/11/28 06:58:24;;;;;;;3.27;3.00;;;;;;;;;;5042350;28;20468;-75
2021/11/28 07:00:53;;;;;;;3.27;2.80;;;;;;;;;;5043768;28;20442;-75
2021/11/28 07:03:21;;;;;;;2.70;2.50;;;;;;;;;;5044702;28;20931;-75
2021/11/28 07:05:49;;;;;;;2.73;2.30;;;;;;;;;;5040576;28;20497;-75
2021/11/28 07:08:17;;;;;;;4.83;3.63;;;;;;;;;;5044383;28;20501;-75
2021/11/28 07:10:45;;;;;;;2.50;2.30;;;;;;;;;;5044292;28;20499;-74
2021/11/28 07:13:13;;;;;;;2.70;2.50;;;;;;;;;;5044469;28;20972;-75
2021/11/28 07:15:43;;;;;;;3.50;2.90;;;;;;;;;;5044704;28;20965;-81
2021/11/28 07:18:10;;;;;;;2.80;2.60;;;;;;;;;;5056293;28;20483;-79
2021/11/28 07:20:38;;;;;;;2.90;2.50;;;;;;;;;;5043181;28;20457;-78
2021/11/28 07:23:07;;;;;;;2.77;2.43;;;;;;;;;;5043247;28;20442;-78
2021/11/28 07:25:35;;;;;;;2.93;1.77;;;;;;;;;;5050083;28;20464;-73
2021/11/28 07:28:03;;;;;;;2.43;2.17;;;;;;;;;;5044150;28;20484;-77
2021/11/28 07:30:31;;;;;;;2.20;2.00;;;;;;;;;;5045271;28;20440;-77
2021/11/28 07:33:01;;;;;;;2.30;2.07;;;;;;;;;;5043197;28;20446;-77
2021/11/28 07:35:28;;;;;;;2.33;2.03;;;;;;;;;;5050843;28;20446;-77
2021/11/28 07:37:57;;;;;;;2.03;1.67;;;;;;;;;;5053374;28;20453;-76
2021/11/28 07:40:25;;;;;;;2.70;2.50;;;;;;;;;;5055646;28;20463;-76
2021/11/28 07:42:53;;;;;;;3.60;3.30;;;;;;;;;;5051070;28;20532;-77
2021/11/28 07:45:21;;;;;;;2.93;2.13;;;;;;;;;;5045283;28;21005;-78
2021/11/28 07:47:49;;;;;;;1.80;1.70;;;;;;;;;;5043681;28;20533;-79
2021/11/28 07:50:18;;;;;;;2.20;1.80;;;;;;;;;;5045073;28;20804;-78
2021/11/28 07:52:46;;;;;;;2.00;1.90;;;;;;;;;;5049655;28;20448;-79
2021/11/28 07:55:14;;;;;;;2.30;2.10;;;;;;;;;;5045975;28;20573;-78
2021/11/28 07:57:44;;;;;;;2.67;2.27;;;;;;;;;;5050029;28;20529;-80
2021/11/28 08:00:12;;;;;;;2.20;2.00;;;;;;;;;;5046564;28;20463;-79
2021/11/28 08:02:40;;;;;;;3.13;2.83;;;;;;;;;;5045776;28;20546;-79
2021/11/28 08:05:09;;;;;;;2.10;2.00;;;;;;;;;;5048989;28;20445;-78
2021/11/28 08:07:38;;;;;;;1.93;1.80;;;;;;;;;;5049139;28;20933;-79
2021/11/28 08:10:07;;;;;;;3.37;1.90;;;;;;;;;;5048918;28;21179;-77
2021/11/28 08:12:35;;;;;;;2.03;1.93;;;;;;;;;;5048189;28;20535;-78
2021/11/28 08:15:05;;;;;;;2.67;1.60;;;;;;;;;;5048024;28;20496;-75
2021/11/28 08:17:37;;;;;;;1.90;1.80;;;;;;;;;;5046748;28;20489;-74
2021/11/28 08:20:06;;;;;;;1.97;1.87;;;;;;;;;;5045564;28;20522;-76
2021/11/28 08:22:34;;;;;;;1.53;1.50;;;;;;;;;;5051274;28;20525;-74
2021/11/28 08:25:04;;;;;;;2.20;2.00;;;;;;;;;;5048176;28;20460;-72
2021/11/28 08:27:33;;;;;;;2.93;2.60;;;;;;;;;;5047549;28;20815;-73
2021/11/28 08:30:04;;;;;;;1.40;1.30;;;;;;;;;;5045018;28;21003;-70
2021/11/28 08:32:32;;;;;;;1.40;1.30;;;;;;;;;;5045730;28;20463;-74
2021/11/28 08:35:00;;;;;;;1.27;1.23;;;;;;;;;;5047531;28;20477;-73
2021/11/28 08:37:29;;;;;;;1.27;1.20;;;;;;;;;;5050035;28;20520;-71
2021/11/28 08:39:57;;;;;;;1.10;1.10;;;;;;;;;;5050182;28;20466;-73
2021/11/28 08:42:31;;;;;;;1.50;1.40;;;;;;;;;;5047711;28;20434;-70
2021/11/28 08:44:59;;;;;;;1.63;1.53;;;;;;;;;;5047319;28;20457;-71
2021/11/28 08:47:27;;;;;;;1.20;1.20;;;;;;;;;;5042271;28;20454;-72
2021/11/28 08:49:55;;;;;;;73.07;39.87;;;;;;;;;;5045969;28;20482;-73
2021/11/28 08:52:23;;;;;;;610.97;335.90;;;;;;;;;;5046333;28;20502;-72
2021/11/28 08:54:51;;;;;;;56.73;26.83;;;;;;;;;;5045673;28;20493;-73
2021/11/28 08:57:19;;;;;;;5.63;3.43;;;;;;;;;;5044515;28;20442;-72
2021/11/28 08:59:49;;;;;;;1.37;1.37;;;;;;;;;;5045198;28;20463;-72
2021/11/28 09:02:17;;;;;;;1.00;1.00;;;;;;;;;;5047039;28;20458;-72
2021/11/28 09:04:46;;;;;;;0.93;0.93;;;;;;;;;;5049836;28;20844;-72
2021/11/28 09:07:14;;;;;;;1.10;0.90;;;;;;;;;;5047410;28;20454;-71
2021/11/28 09:09:42;;;;;;;1.10;1.10;;;;;;;;;;5046653;28;20464;-72
2021/11/28 09:12:10;;;;;;;2.20;1.20;;;;;;;;;;5054910;28;20564;-72
2021/11/28 09:14:38;;;;;;;0.77;0.77;;;;;;;;;;5059083;28;20477;-72
2021/11/28 09:17:07;;;;;;;1.90;1.00;;;;;;;;;;5058353;28;20453;-73
2021/11/28 09:19:44;;;;;;;2.53;1.33;;;;;;;;;;5041398;28;20484;-72
2021/11/28 09:22:20;;;;;;;1.10;1.00;;;;;;;;;;5048393;28;20453;-72
2021/11/28 09:24:47;;;;;;;1.37;0.70;;;;;;;;;;5051939;28;20967;-72
2021/11/28 09:27:17;;;;;;;1.13;0.70;;;;;;;;;;5058395;28;20443;-73
2021/11/28 09:29:46;;;;;;;0.80;0.80;;;;;;;;;;5057740;28;21101;-72
2021/11/28 09:32:16;;;;;;;1.00;1.00;;;;;;;;;;5058168;28;20960;-72
2021/11/28 09:34:44;;;;;;;0.60;0.60;;;;;;;;;;5058924;28;20515;-73
2021/11/28 09:37:13;;;;;;;0.77;0.70;;;;;;;;;;5051586;28;20510;-72
2021/11/28 09:39:44;;;;;;;0.83;0.67;;;;;;;;;;5051880;28;20980;-73
2021/11/28 09:42:12;;;;;;;0.70;0.53;;;;;;;;;;5058800;28;20552;-73
2021/11/28 09:44:42;;;;;;;0.80;0.73;;;;;;;;;;5057523;28;20545;-73
2021/11/28 09:47:10;;;;;;;0.80;0.80;;;;;;;;;;5058746;28;20471;-72
2021/11/28 09:49:41;;;;;;;0.90;0.90;;;;;;;;;;5057378;28;20519;-73
2021/11/28 09:52:11;;;;;;;0.90;0.90;;;;;;;;;;5056490;28;20467;-72
2021/11/28 09:54:40;;;;;;;0.80;0.80;;;;;;;;;;5045559;28;20477;-71
2021/11/28 09:57:11;;;;;;;0.80;0.80;;;;;;;;;;5048875;28;20472;-74
2021/11/28 09:59:39;;;;;;;1.10;0.80;;;;;;;;;;5058278;28;20473;-74
2021/11/28 10:02:08;;;;;;;1.20;1.20;;;;;;;;;;5049364;28;20457;-75
2021/11/28 10:04:36;;;;;;;0.50;0.50;;;;;;;;;;5046304;28;20215;-75
2021/11/28 10:07:06;;;;;;;0.60;0.60;;;;;;;;;;5046269;28;20206;-75
2021/11/28 10:09:34;;;;;;;0.97;0.70;;;;;;;;;;5043488;28;20466;-76
2021/11/28 10:12:12;;;;;;;0.80;0.60;;;;;;;;;;5043017;28;21000;-76
2021/11/28 10:14:42;;;;;;;0.67;0.67;;;;;;;;;;5043801;28;20438;-75
2021/11/28 10:17:10;;;;;;;0.50;0.50;;;;;;;;;;5044980;28;20442;-74
2021/11/28 10:19:38;;;;;;;0.63;0.63;;;;;;;;;;5077563;28;20460;-75
2021/11/28 10:22:07;;;;;;;0.70;0.70;;;;;;;;;;5047111;28;20446;-75
2021/11/28 10:24:36;;;;;;;0.73;0.73;;;;;;;;;;5046096;28;20955;-75
2021/11/28 10:27:08;;;;;;;1.87;0.80;;;;;;;;;;5050181;28;20464;-75
2021/11/28 10:29:37;;;;;;;0.60;0.60;;;;;;;;;;5043064;28;20458;-75
2021/11/28 10:32:06;;;;;;;0.80;0.80;;;;;;;;;;5043262;28;20782;-75
2021/11/28 10:34:36;;;;;;;0.50;0.50;;;;;;;;;;5048568;28;20524;-75
2021/11/28 10:37:06;;;;;;;0.50;0.50;;;;;;;;;;5045421;28;20437;-75
2021/11/28 10:39:40;;;;;;;0.50;0.50;;;;;;;;;;5057062;28;20515;-75
2021/11/28 10:42:08;;;;;;;0.50;0.50;;;;;;;;;;5054419;28;20488;-75
2021/11/28 10:44:38;;;;;;;0.90;0.90;;;;;;;;;;5044933;28;20434;-75
2021/11/28 10:47:09;;;;;;;1.90;1.80;;;;;;;;;;5049151;28;20445;-74
2021/11/28 10:49:40;;;;;;;1.17;0.90;;;;;;;;;;5045500;28;20461;-75
2021/11/28 10:52:10;;;;;;;1.10;1.00;;;;;;;;;;5048557;28;20449;-75
2021/11/28 10:54:43;;;;;;;0.70;0.70;;;;;;;;;;5045220;28;20964;-75
2021/11/28 10:57:28;;;;;;;1.60;1.33;;;;;;;;;;5044638;28;20438;-73
2021/11/28 10:59:59;;;;;;;0.90;0.90;;;;;;;;;;5041103;28;20466;-74
2021/11/28 11:02:28;;;;;;;1.00;1.00;;;;;;;;;;5042138;28;20445;-73
2021/11/28 11:04:57;;;;;;;0.97;0.97;;;;;;;;;;5042453;28;20945;-74
2021/11/28 11:07:48;;;;;;;1.00;1.00;;;;;;;;;;5049760;28;20576;-74
2021/11/28 11:10:18;;;;;;;1.33;1.07;;;;;;;;;;5047807;28;20465;-74
2021/11/28 11:12:46;;;;;;;1.00;1.00;;;;;;;;;;5047383;28;20521;-74
2021/11/28 11:15:29;;;;;;;0.80;0.80;;;;;;;;;;5050373;28;20441;-74
2021/11/28 11:17:59;;;;;;;1.27;1.27;;;;;;;;;;5045984;28;20384;-74
2021/11/28 11:20:27;;;;;;;1.17;1.13;;;;;;;;;;5045303;28;20434;-73
2021/11/28 11:22:56;;;;;;;1.20;1.10;;;;;;;;;;5047449;28;20465;-72
2021/11/28 11:25:32;;;;;;;1.40;1.30;;;;;;;;;;5043215;28;20806;-76
2021/11/28 11:28:11;;;;;;;3.53;0.90;;;;;;;;;;5057025;28;21327;-74
2021/11/28 11:30:39;;;;;;;0.70;0.70;;;;;;;;;;5054276;28;20448;-74
2021/11/28 11:33:08;;;;;;;0.93;0.80;;;;;;;;;;5059149;28;20444;-75
2021/11/28 11:35:40;;;;;;;1.03;0.80;;;;;;;;;;5056032;28;20477;-71
2021/11/28 11:38:09;;;;;;;0.93;0.80;;;;;;;;;;5043387;28;20466;-74
2021/11/28 11:40:39;;;;;;;1.13;0.80;;;;;;;;;;5047941;28;20875;-74
2021/11/28 11:43:08;;;;;;;1.07;0.70;;;;;;;;;;5053306;28;20441;-71
2021/11/28 11:45:37;;;;;;;1.70;1.37;;;;;;;;;;5049299;28;20452;-75
2021/11/28 11:48:05;;;;;;;0.67;0.67;;;;;;;;;;5052189;28;20819;-73
2021/11/28 11:50:35;;;;;;;0.90;0.90;;;;;;;;;;5049889;28;20441;-73
2021/11/28 11:53:04;;;;;;;0.93;0.93;;;;;;;;;;5053134;28;20199;-70
2021/11/28 11:55:36;;;;;;;0.90;0.90;;;;;;;;;;5049702;28;20587;-71
2021/11/28 11:58:18;;;;;;;0.70;0.70;;;;;;;;;;5047853;28;20832;-72
2021/11/28 12:00:49;;;;;;;0.73;0.73;;;;;;;;;;5041674;28;20528;-73
2021/11/28 12:03:19;;;;;;;0.87;0.87;;;;;;;;;;5047830;28;20441;-69
2021/11/28 12:05:47;;;;;;;0.70;0.70;;;;;;;;;;5048023;28;20445;-68
2021/11/28 12:08:22;;;;;;;0.80;0.80;;;;;;;;;;5060668;28;20461;-70
2021/11/28 12:10:58;;;;;;;0.60;0.60;;;;;;;;;;5060067;28;20445;-72
2021/11/28 12:13:45;;;;;;;0.70;0.70;;;;;;;;;;5060817;28;20441;-71
2021/11/28 12:16:20;;;;;;;0.50;0.50;;;;;;;;;;5054645;28;20836;-71
2021/11/28 12:18:50;;;;;;;0.63;0.63;;;;;;;;;;5047674;28;20510;-72
2021/11/28 12:21:18;;;;;;;0.53;0.53;;;;;;;;;;5047007;28;20462;-71
2021/11/28 12:23:59;;;;;;;0.60;0.60;;;;;;;;;;5049685;28;20500;-72
2021/11/28 12:26:46;;;;;;;1.80;0.50;;;;;;;;;;5049496;28;20433;-71
2021/11/28 12:29:33;;;;;;;0.60;0.60;;;;;;;;;;5048469;28;20454;-71
2021/11/28 12:32:15;;;;;;;1.60;0.77;;;;;;;;;;5049049;28;20479;-71
2021/11/28 12:34:44;;;;;;;1.10;1.00;;;;;;;;;;5043626;28;20454;-71
2021/11/28 12:37:20;;;;;;;1.33;0.90;;;;;;;;;;5046919;28;20480;-71
2021/11/28 12:39:48;;;;;;;0.77;0.77;;;;;;;;;;5049922;28;20521;-70
2021/11/28 12:42:19;;;;;;;0.63;0.63;;;;;;;;;;5048329;28;20438;-70
2021/11/28 12:45:01;;;;;;;0.63;0.63;;;;;;;;;;5050069;28;20919;-71
2021/11/28 12:47:32;;;;;;;0.93;0.93;;;;;;;;;;5057027;28;20441;-72
2021/11/28 12:50:01;;;;;;;1.30;1.20;;;;;;;;;;5056490;28;20453;-72
2021/11/28 12:52:42;;;;;;;1.10;1.00;;;;;;;;;;5058416;28;20460;-70
2021/11/28 12:55:12;;;;;;;0.60;0.60;;;;;;;;;;5058467;28;20434;-71
2021/11/28 12:57:41;;;;;;;1.97;1.10;;;;;;;;;;5059003;28;20569;-71
2021/11/28 13:00:16;;;;;;;1.10;1.10;;;;;;;;;;5058549;28;20455;-70
2021/11/28 13:02:46;;;;;;;0.83;0.83;;;;;;;;;;5049240;28;20448;-70
2021/11/28 13:05:35;;;;;;;1.23;1.23;;;;;;;;;;5049091;28;20444;-70
2021/11/28 13:08:33;;;;;;;0.67;0.60;;;;;;;;;;5064638;28;20456;-74
2021/11/28 13:11:26;;;;;;;1.07;0.87;;;;;;;;;;5016889;28;20503;-73
2021/11/28 13:13:59;;;;;;;1.10;1.10;;;;;;;;;;5055432;28;20461;-73
2021/11/28 13:16:32;;;;;;;0.70;0.70;;;;;;;;;;5057761;28;20476;-73
2021/11/28 13:19:04;;;;;;;0.60;0.60;;;;;;;;;;5057321;28;20471;-72
2021/11/28 13:21:32;;;;;;;0.87;0.87;;;;;;;;;;5044738;28;20461;-72
2021/11/28 13:24:01;;;;;;;0.70;0.70;;;;;;;;;;5058051;28;20507;-71
2021/11/28 13:26:31;;;;;;;0.60;0.60;;;;;;;;;;5065901;28;20871;-71
2021/11/28 13:29:04;;;;;;;0.60;0.60;;;;;;;;;;5070312;28;20493;-71
2021/11/28 13:31:35;;;;;;;0.70;0.70;;;;;;;;;;5058760;28;20448;-71
2021/11/28 13:34:06;;;;;;;2.73;1.20;;;;;;;;;;5058315;28;20568;-71
2021/11/28 13:36:41;;;;;;;1.03;1.03;;;;;;;;;;5058601;28;20516;-71
2021/11/28 13:39:10;;;;;;;1.00;0.70;;;;;;;;;;5044493;28;20465;-71
2021/11/28 13:41:39;;;;;;;1.03;0.77;;;;;;;;;;5054613;28;20806;-71
2021/11/28 13:44:08;;;;;;;1.67;0.77;;;;;;;;;;5058804;28;20442;-71
2021/11/28 13:46:37;;;;;;;0.70;0.70;;;;;;;;;;5058828;28;20995;-71
2021/11/28 13:49:09;;;;;;;0.50;0.50;;;;;;;;;;5057989;28;20503;-71
2021/11/28 13:51:39;;;;;;;1.07;0.80;;;;;;;;;;5058440;28;20517;-71
2021/11/28 13:54:07;;;;;;;1.40;0.80;;;;;;;;;;5058678;28;20452;-71
2021/11/28 13:56:39;;;;;;;0.60;0.60;;;;;;;;;;5056789;28;20532;-71
2021/11/28 13:59:08;;;;;;;0.57;0.57;;;;;;;;;;5063610;28;20464;-71
2021/11/28 14:01:36;;;;;;;0.50;0.50;;;;;;;;;;5058425;28;20457;-71
2021/11/28 14:04:19;;;;;;;0.60;0.60;;;;;;;;;;5052053;28;20456;-71
2021/11/28 14:06:47;;;;;;;0.47;0.47;;;;;;;;;;5058473;28;20442;-71
2021/11/28 14:09:15;;;;;;;0.87;0.70;;;;;;;;;;5057553;28;20477;-71
2021/11/28 14:11:43;;;;;;;2.43;1.00;;;;;;;;;;5057984;28;20851;-71
2021/11/28 14:14:11;;;;;;;0.60;0.60;;;;;;;;;;5058034;28;20987;-71
2021/11/28 14:16:47;;;;;;;2.37;0.80;;;;;;;;;;5058223;28;20447;-71
2021/11/28 14:19:29;;;;;;;0.63;0.63;;;;;;;;;;5057668;28;20469;-71
2021/11/28 14:21:57;;;;;;;0.80;0.80;;;;;;;;;;5058066;28;20456;-71
2021/11/28 14:24:41;;;;;;;0.67;0.67;;;;;;;;;;5057771;28;20988;-71
2021/11/28 14:27:14;;;;;;;0.87;0.67;;;;;;;;;;5075487;28;20441;-71
2021/11/28 14:29:42;;;;;;;0.43;0.43;;;;;;;;;;5063174;28;20828;-71
2021/11/28 14:32:10;;;;;;;0.43;0.43;;;;;;;;;;5058068;28;20441;-71
2021/11/28 14:34:39;;;;;;;1.37;1.00;;;;;;;;;;5057867;28;20451;-71
2021/11/28 14:37:14;;;;;;;0.63;0.63;;;;;;;;;;5053344;28;20913;-71
2021/11/28 14:39:42;;;;;;;0.60;0.60;;;;;;;;;;5046274;28;20472;-71
2021/11/28 14:42:14;;;;;;;0.63;0.63;;;;;;;;;;5051079;28;20824;-71
2021/11/28 14:44:43;;;;;;;0.77;0.73;;;;;;;;;;5057964;28;20447;-71
2021/11/28 14:47:20;;;;;;;0.93;0.93;;;;;;;;;;5057375;28;20813;-71
2021/11/28 14:49:49;;;;;;;0.70;0.70;;;;;;;;;;5057612;28;20465;-71
2021/11/28 14:52:27;;;;;;;1.80;0.87;;;;;;;;;;5057478;28;20945;-71
2021/11/28 14:54:55;;;;;;;0.60;0.60;;;;;;;;;;5057472;28;20445;-71
2021/11/28 14:57:23;;;;;;;0.63;0.63;;;;;;;;;;5057674;28;20480;-71
2021/11/28 14:59:52;;;;;;;0.77;0.77;;;;;;;;;;5057700;28;20472;-71
2021/11/28 15:02:22;;;;;;;2.40;0.83;;;;;;;;;;5057333;28;20937;-71
2021/11/28 15:05:00;;;;;;;1.43;0.80;;;;;;;;;;5057445;28;20448;-71
2021/11/28 15:07:30;;;;;;;0.50;0.50;;;;;;;;;;5057673;28;20441;-71